sensor_id;sensor_type;location;lat;lon;timestamp;P1;durP1;ratioP1;P2;durP2;ratioP2
19869;SDS011;10097;50.862;4.696;2022-08-19T03:34:47;66.38;;;37.70;;
19869;SDS011;10097;50.862;4.696;2022-08-19T05:25:31;38.55;;;21.80;;
19869;SDS011;10097;50.862;4.696;2022-08-19T05:27:57;56.65;;;23.63;;
19869;SDS011;10097;50.862;4.696;2022-08-19T05:30:23;41.92;;;22.98;;
19869;SDS011;10097;50.862;4.696;2022-08-19T05:32:49;66.55;;;26.15;;
19869;SDS011;10097;50.862;4.696;2022-08-19T05:35:14;46.92;;;23.52;;
19869;SDS011;10097;50.862;4.696;2022-08-19T05:37:40;38.00;;;21.67;;
19869;SDS011;10097;50.862;4.696;2022-08-19T05:40:06;40.97;;;22.02;;
19869;SDS011;10097;50.862;4.696;2022-08-19T05:42:32;42.60;;;22.38;;
19869;SDS011;10097;50.862;4.696;2022-08-19T05:44:58;43.97;;;22.88;;
19869;SDS011;10097;50.862;4.696;2022-08-19T05:47:23;43.60;;;22.20;;
19869;SDS011;10097;50.862;4.696;2022-08-19T05:49:49;49.00;;;23.25;;
19869;SDS011;10097;50.862;4.696;2022-08-19T05:52:15;40.53;;;21.33;;
19869;SDS011;10097;50.862;4.696;2022-08-19T05:54:42;43.80;;;20.95;;
19869;SDS011;10097;50.862;4.696;2022-08-19T05:57:08;41.67;;;22.02;;
19869;SDS011;10097;50.862;4.696;2022-08-19T05:59:34;41.03;;;21.50;;
19869;SDS011;10097;50.862;4.696;2022-08-19T06:02:04;40.28;;;21.90;;
19869;SDS011;10097;50.862;4.696;2022-08-19T06:04:32;43.08;;;22.73;;
19869;SDS011;10097;50.862;4.696;2022-08-19T06:07:02;37.63;;;21.05;;
19869;SDS011;10097;50.862;4.696;2022-08-19T06:13:32;34.88;;;19.42;;
19869;SDS011;10097;50.862;4.696;2022-08-19T06:15:58;37.58;;;19.73;;
19869;SDS011;10097;50.862;4.696;2022-08-19T06:18:24;33.22;;;19.23;;
19869;SDS011;10097;50.862;4.696;2022-08-19T06:20:49;34.95;;;19.83;;
19869;SDS011;10097;50.862;4.696;2022-08-19T06:30:01;35.85;;;18.90;;
19869;SDS011;10097;50.862;4.696;2022-08-19T06:32:27;35.45;;;18.98;;
19869;SDS011;10097;50.862;4.696;2022-08-19T06:34:53;30.63;;;17.42;;
19869;SDS011;10097;50.862;4.696;2022-08-19T06:44:00;31.00;;;17.52;;
19869;SDS011;10097;50.862;4.696;2022-08-19T06:46:26;27.98;;;16.35;;
19869;SDS011;10097;50.862;4.696;2022-08-19T06:48:52;31.52;;;17.40;;
19869;SDS011;10097;50.862;4.696;2022-08-19T06:51:19;29.08;;;15.70;;
19869;SDS011;10097;50.862;4.696;2022-08-19T06:53:46;25.58;;;15.95;;
19869;SDS011;10097;50.862;4.696;2022-08-19T06:56:14;26.63;;;15.18;;
19869;SDS011;10097;50.862;4.696;2022-08-19T06:58:52;22.60;;;13.70;;
19869;SDS011;10097;50.862;4.696;2022-08-19T07:04:40;22.45;;;12.57;;
19869;SDS011;10097;50.862;4.696;2022-08-19T07:10:33;22.65;;;12.02;;
19869;SDS011;10097;50.862;4.696;2022-08-19T08:29:59;9.43;;;4.13;;
19869;SDS011;10097;50.862;4.696;2022-08-19T08:32:24;8.88;;;4.03;;
19869;SDS011;10097;50.862;4.696;2022-08-19T08:34:50;9.68;;;4.28;;
19869;SDS011;10097;50.862;4.696;2022-08-19T08:37:19;10.23;;;4.00;;
19869;SDS011;10097;50.862;4.696;2022-08-19T08:39:44;9.95;;;3.58;;
19869;SDS011;10097;50.862;4.696;2022-08-19T08:42:21;10.35;;;4.07;;
19869;SDS011;10097;50.862;4.696;2022-08-19T08:47:26;9.57;;;3.88;;
19869;SDS011;10097;50.862;4.696;2022-08-19T08:50:08;9.95;;;4.15;;
19869;SDS011;10097;50.862;4.696;2022-08-19T08:52:46;14.45;;;4.15;;
19869;SDS011;10097;50.862;4.696;2022-08-19T08:55:17;9.00;;;3.80;;
19869;SDS011;10097;50.862;4.696;2022-08-19T09:00:20;8.85;;;3.90;;
19869;SDS011;10097;50.862;4.696;2022-08-19T09:02:53;10.38;;;4.35;;
19869;SDS011;10097;50.862;4.696;2022-08-19T09:05:20;7.68;;;3.58;;
19869;SDS011;10097;50.862;4.696;2022-08-19T09:19:05;9.00;;;3.60;;
19869;SDS011;10097;50.862;4.696;2022-08-19T09:21:32;8.63;;;3.47;;
19869;SDS011;10097;50.862;4.696;2022-08-19T09:23:59;7.35;;;3.15;;
19869;SDS011;10097;50.862;4.696;2022-08-19T09:26:26;7.20;;;2.92;;
19869;SDS011;10097;50.862;4.696;2022-08-19T09:28:52;7.70;;;3.75;;
19869;SDS011;10097;50.862;4.696;2022-08-19T09:31:23;9.50;;;3.47;;
19869;SDS011;10097;50.862;4.696;2022-08-19T09:33:51;10.15;;;3.30;;
19869;SDS011;10097;50.862;4.696;2022-08-19T09:36:18;8.00;;;3.42;;
19869;SDS011;10097;50.862;4.696;2022-08-19T09:38:48;8.50;;;2.70;;
19869;SDS011;10097;50.862;4.696;2022-08-19T09:41:21;6.70;;;2.42;;
19869;SDS011;10097;50.862;4.696;2022-08-19T09:43:51;6.47;;;2.28;;
19869;SDS011;10097;50.862;4.696;2022-08-19T09:46:20;6.10;;;2.30;;
19869;SDS011;10097;50.862;4.696;2022-08-19T09:48:47;10.63;;;2.55;;
19869;SDS011;10097;50.862;4.696;2022-08-19T09:51:16;6.65;;;2.60;;
19869;SDS011;10097;50.862;4.696;2022-08-19T09:53:46;8.07;;;2.50;;
19869;SDS011;10097;50.862;4.696;2022-08-19T09:56:15;8.35;;;2.88;;
19869;SDS011;10097;50.862;4.696;2022-08-19T09:58:43;6.90;;;2.95;;
19869;SDS011;10097;50.862;4.696;2022-08-19T10:01:08;9.57;;;3.50;;
19869;SDS011;10097;50.862;4.696;2022-08-19T10:03:41;8.38;;;3.22;;
19869;SDS011;10097;50.862;4.696;2022-08-19T10:06:06;7.80;;;3.22;;
19869;SDS011;10097;50.862;4.696;2022-08-19T10:08:35;5.40;;;2.67;;
19869;SDS011;10097;50.862;4.696;2022-08-19T10:11:02;6.30;;;2.72;;
19869;SDS011;10097;50.862;4.696;2022-08-19T10:13:30;8.68;;;3.10;;
19869;SDS011;10097;50.862;4.696;2022-08-19T10:16:07;6.03;;;3.10;;
19869;SDS011;10097;50.862;4.696;2022-08-19T10:18:38;6.90;;;2.53;;
19869;SDS011;10097;50.862;4.696;2022-08-19T10:21:12;7.97;;;3.13;;
19869;SDS011;10097;50.862;4.696;2022-08-19T10:23:49;8.10;;;3.22;;
19869;SDS011;10097;50.862;4.696;2022-08-19T10:26:18;7.70;;;3.05;;
19869;SDS011;10097;50.862;4.696;2022-08-19T10:28:46;6.65;;;2.80;;
19869;SDS011;10097;50.862;4.696;2022-08-19T10:31:19;7.57;;;2.92;;
19869;SDS011;10097;50.862;4.696;2022-08-19T10:33:48;5.00;;;2.70;;
19869;SDS011;10097;50.862;4.696;2022-08-19T10:36:15;6.47;;;3.05;;
19869;SDS011;10097;50.862;4.696;2022-08-19T10:38:43;6.88;;;2.85;;
19869;SDS011;10097;50.862;4.696;2022-08-19T10:41:13;7.18;;;2.90;;
19869;SDS011;10097;50.862;4.696;2022-08-19T10:44:01;9.02;;;2.63;;
19869;SDS011;10097;50.862;4.696;2022-08-19T10:46:36;8.50;;;3.20;;
19869;SDS011;10097;50.862;4.696;2022-08-19T10:49:05;6.78;;;2.70;;
19869;SDS011;10097;50.862;4.696;2022-08-19T10:51:31;8.75;;;2.90;;
19869;SDS011;10097;50.862;4.696;2022-08-19T10:54:16;6.82;;;3.00;;
19869;SDS011;10097;50.862;4.696;2022-08-19T10:56:42;5.10;;;2.33;;
19869;SDS011;10097;50.862;4.696;2022-08-19T10:59:21;7.95;;;2.70;;
19869;SDS011;10097;50.862;4.696;2022-08-19T11:01:48;8.10;;;2.80;;
19869;SDS011;10097;50.862;4.696;2022-08-19T11:04:16;5.57;;;2.83;;
19869;SDS011;10097;50.862;4.696;2022-08-19T11:06:46;5.10;;;2.50;;
19869;SDS011;10097;50.862;4.696;2022-08-19T11:09:14;7.13;;;2.30;;
19869;SDS011;10097;50.862;4.696;2022-08-19T11:11:45;7.93;;;2.35;;
19869;SDS011;10097;50.862;4.696;2022-08-19T11:14:13;5.78;;;2.33;;
19869;SDS011;10097;50.862;4.696;2022-08-19T11:16:41;5.13;;;2.53;;
19869;SDS011;10097;50.862;4.696;2022-08-19T11:19:10;4.53;;;2.47;;
19869;SDS011;10097;50.862;4.696;2022-08-19T11:21:40;3.83;;;2.22;;
19869;SDS011;10097;50.862;4.696;2022-08-19T11:24:08;7.00;;;2.08;;
19869;SDS011;10097;50.862;4.696;2022-08-19T11:26:37;5.28;;;2.05;;
19869;SDS011;10097;50.862;4.696;2022-08-19T11:29:05;7.32;;;2.53;;
19869;SDS011;10097;50.862;4.696;2022-08-19T11:31:33;8.20;;;2.55;;
19869;SDS011;10097;50.862;4.696;2022-08-19T11:34:04;6.18;;;2.72;;
19869;SDS011;10097;50.862;4.696;2022-08-19T11:36:36;3.63;;;2.15;;
19869;SDS011;10097;50.862;4.696;2022-08-19T11:39:04;6.65;;;2.72;;
19869;SDS011;10097;50.862;4.696;2022-08-19T11:41:31;4.97;;;2.40;;
19869;SDS011;10097;50.862;4.696;2022-08-19T11:43:57;8.00;;;3.05;;
19869;SDS011;10097;50.862;4.696;2022-08-19T11:46:24;5.80;;;2.85;;
19869;SDS011;10097;50.862;4.696;2022-08-19T11:48:52;8.75;;;2.92;;
19869;SDS011;10097;50.862;4.696;2022-08-19T11:51:30;6.55;;;3.22;;
19869;SDS011;10097;50.862;4.696;2022-08-19T11:54:52;7.45;;;3.65;;
19869;SDS011;10097;50.862;4.696;2022-08-19T11:57:18;6.38;;;3.03;;
19869;SDS011;10097;50.862;4.696;2022-08-19T11:59:49;5.57;;;2.80;;
19869;SDS011;10097;50.862;4.696;2022-08-19T12:02:21;6.75;;;3.40;;
19869;SDS011;10097;50.862;4.696;2022-08-19T12:05:25;9.25;;;4.07;;
19869;SDS011;10097;50.862;4.696;2022-08-19T12:07:51;8.57;;;4.03;;
19869;SDS011;10097;50.862;4.696;2022-08-19T12:17:39;10.55;;;5.57;;
19869;SDS011;10097;50.862;4.696;2022-08-19T12:41:29;8.02;;;4.45;;
19869;SDS011;10097;50.862;4.696;2022-08-19T12:43:54;7.18;;;4.30;;
19869;SDS011;10097;50.862;4.696;2022-08-19T12:46:23;8.48;;;4.55;;
19869;SDS011;10097;50.862;4.696;2022-08-19T12:48:49;9.07;;;4.93;;
19869;SDS011;10097;50.862;4.696;2022-08-19T12:51:19;7.68;;;4.60;;
19869;SDS011;10097;50.862;4.696;2022-08-19T12:53:48;10.15;;;5.10;;
19869;SDS011;10097;50.862;4.696;2022-08-19T12:56:19;9.85;;;4.72;;
19869;SDS011;10097;50.862;4.696;2022-08-19T12:59:04;9.10;;;3.83;;
19869;SDS011;10097;50.862;4.696;2022-08-19T13:01:43;8.20;;;4.60;;
19869;SDS011;10097;50.862;4.696;2022-08-19T13:04:36;6.10;;;3.28;;
19869;SDS011;10097;50.862;4.696;2022-08-19T13:07:12;6.45;;;3.50;;
19869;SDS011;10097;50.862;4.696;2022-08-19T13:09:42;6.72;;;3.35;;
19869;SDS011;10097;50.862;4.696;2022-08-19T13:12:14;7.40;;;3.15;;
19869;SDS011;10097;50.862;4.696;2022-08-19T13:14:42;7.70;;;3.50;;
19869;SDS011;10097;50.862;4.696;2022-08-19T13:17:18;7.55;;;3.08;;
19869;SDS011;10097;50.862;4.696;2022-08-19T13:20:07;6.90;;;2.95;;
19869;SDS011;10097;50.862;4.696;2022-08-19T13:22:39;6.60;;;3.10;;
19869;SDS011;10097;50.862;4.696;2022-08-19T13:25:07;5.13;;;2.50;;
19869;SDS011;10097;50.862;4.696;2022-08-19T13:27:56;5.68;;;2.70;;
19869;SDS011;10097;50.862;4.696;2022-08-19T13:30:28;5.68;;;2.10;;
19869;SDS011;10097;50.862;4.696;2022-08-19T13:33:22;4.55;;;2.50;;
19869;SDS011;10097;50.862;4.696;2022-08-19T13:35:59;6.03;;;2.00;;
19869;SDS011;10097;50.862;4.696;2022-08-19T13:38:27;3.17;;;1.52;;
19869;SDS011;10097;50.862;4.696;2022-08-19T13:41:03;3.63;;;1.65;;
19869;SDS011;10097;50.862;4.696;2022-08-19T13:43:38;4.03;;;1.40;;
19869;SDS011;10097;50.862;4.696;2022-08-19T13:46:10;3.20;;;1.75;;
19869;SDS011;10097;50.862;4.696;2022-08-19T13:48:41;3.55;;;1.33;;
19869;SDS011;10097;50.862;4.696;2022-08-19T13:51:34;2.33;;;1.27;;
19869;SDS011;10097;50.862;4.696;2022-08-19T13:54:10;1.75;;;1.20;;
19869;SDS011;10097;50.862;4.696;2022-08-19T13:56:42;2.65;;;1.23;;
19869;SDS011;10097;50.862;4.696;2022-08-19T13:59:26;4.43;;;1.23;;
19869;SDS011;10097;50.862;4.696;2022-08-19T14:01:52;3.88;;;0.90;;
19869;SDS011;10097;50.862;4.696;2022-08-19T14:04:41;1.23;;;0.85;;
19869;SDS011;10097;50.862;4.696;2022-08-19T14:07:19;3.22;;;1.08;;
19869;SDS011;10097;50.862;4.696;2022-08-19T14:09:51;3.70;;;1.08;;
19869;SDS011;10097;50.862;4.696;2022-08-19T14:12:22;3.83;;;1.55;;
19869;SDS011;10097;50.862;4.696;2022-08-19T14:15:15;2.15;;;0.85;;
19869;SDS011;10097;50.862;4.696;2022-08-19T14:17:44;1.67;;;0.88;;
19869;SDS011;10097;50.862;4.696;2022-08-19T14:20:16;1.85;;;0.88;;
19869;SDS011;10097;50.862;4.696;2022-08-19T14:22:45;4.45;;;0.90;;
19869;SDS011;10097;50.862;4.696;2022-08-19T14:25:18;2.95;;;1.02;;
19869;SDS011;10097;50.862;4.696;2022-08-19T14:27:47;2.90;;;0.95;;
19869;SDS011;10097;50.862;4.696;2022-08-19T14:30:23;2.45;;;0.80;;
19869;SDS011;10097;50.862;4.696;2022-08-19T14:32:57;2.95;;;1.00;;
19869;SDS011;10097;50.862;4.696;2022-08-19T14:35:33;4.20;;;1.17;;
19869;SDS011;10097;50.862;4.696;2022-08-19T14:38:03;5.88;;;1.00;;
19869;SDS011;10097;50.862;4.696;2022-08-19T14:40:42;2.63;;;0.77;;
19869;SDS011;10097;50.862;4.696;2022-08-19T14:43:13;2.47;;;0.90;;
19869;SDS011;10097;50.862;4.696;2022-08-19T14:45:42;2.28;;;0.85;;
19869;SDS011;10097;50.862;4.696;2022-08-19T14:48:36;5.88;;;0.85;;
19869;SDS011;10097;50.862;4.696;2022-08-19T14:51:15;6.57;;;1.30;;
19869;SDS011;10097;50.862;4.696;2022-08-19T14:54:01;1.48;;;0.70;;
19869;SDS011;10097;50.862;4.696;2022-08-19T14:56:29;8.05;;;0.95;;
19869;SDS011;10097;50.862;4.696;2022-08-19T14:59:06;3.95;;;1.00;;
19869;SDS011;10097;50.862;4.696;2022-08-19T15:01:46;4.60;;;1.00;;
19869;SDS011;10097;50.862;4.696;2022-08-19T15:04:14;2.85;;;0.93;;
19869;SDS011;10097;50.862;4.696;2022-08-19T15:06:44;3.90;;;1.00;;
19869;SDS011;10097;50.862;4.696;2022-08-19T15:09:17;2.70;;;0.77;;
19869;SDS011;10097;50.862;4.696;2022-08-19T15:11:55;3.65;;;0.80;;
19869;SDS011;10097;50.862;4.696;2022-08-19T15:14:28;2.80;;;0.70;;
19869;SDS011;10097;50.862;4.696;2022-08-19T15:17:01;2.40;;;0.70;;
19869;SDS011;10097;50.862;4.696;2022-08-19T15:19:34;2.72;;;0.60;;
19869;SDS011;10097;50.862;4.696;2022-08-19T15:22:03;1.13;;;0.50;;
19869;SDS011;10097;50.862;4.696;2022-08-19T15:24:34;3.03;;;0.50;;
19869;SDS011;10097;50.862;4.696;2022-08-19T15:27:50;0.93;;;0.40;;
19869;SDS011;10097;50.862;4.696;2022-08-19T15:30:22;0.20;;;0.13;;
19869;SDS011;10097;50.862;4.696;2022-08-19T15:32:54;1.45;;;0.40;;
19869;SDS011;10097;50.862;4.696;2022-08-19T15:35:28;1.48;;;0.13;;
19869;SDS011;10097;50.862;4.696;2022-08-19T15:37:57;1.00;;;0.30;;
19869;SDS011;10097;50.862;4.696;2022-08-19T15:40:35;0.43;;;0.30;;
19869;SDS011;10097;50.862;4.696;2022-08-19T15:43:15;0.55;;;0.20;;
19869;SDS011;10097;50.862;4.696;2022-08-19T15:45:51;0.70;;;0.20;;
19869;SDS011;10097;50.862;4.696;2022-08-19T15:48:26;2.03;;;0.30;;
19869;SDS011;10097;50.862;4.696;2022-08-19T15:50:52;0.65;;;0.40;;
19869;SDS011;10097;50.862;4.696;2022-08-19T15:53:17;1.38;;;0.40;;
19869;SDS011;10097;50.862;4.696;2022-08-19T15:55:44;0.85;;;0.43;;
19869;SDS011;10097;50.862;4.696;2022-08-19T15:58:11;1.42;;;0.38;;
19869;SDS011;10097;50.862;4.696;2022-08-19T16:00:58;3.65;;;0.95;;
19869;SDS011;10097;50.862;4.696;2022-08-19T16:03:43;2.85;;;0.52;;
19869;SDS011;10097;50.862;4.696;2022-08-19T16:06:27;1.52;;;0.60;;
19869;SDS011;10097;50.862;4.696;2022-08-19T16:08:54;1.23;;;0.40;;
19869;SDS011;10097;50.862;4.696;2022-08-19T16:11:23;2.13;;;0.80;;
19869;SDS011;10097;50.862;4.696;2022-08-19T16:13:51;2.10;;;0.43;;
19869;SDS011;10097;50.862;4.696;2022-08-19T16:16:22;2.30;;;0.88;;
19869;SDS011;10097;50.862;4.696;2022-08-19T16:18:52;1.90;;;0.63;;
19869;SDS011;10097;50.862;4.696;2022-08-19T16:21:20;3.67;;;0.75;;
19869;SDS011;10097;50.862;4.696;2022-08-19T16:23:49;1.75;;;0.77;;
19869;SDS011;10097;50.862;4.696;2022-08-19T16:26:16;2.55;;;0.75;;
19869;SDS011;10097;50.862;4.696;2022-08-19T16:28:44;3.42;;;1.00;;
19869;SDS011;10097;50.862;4.696;2022-08-19T16:31:11;2.85;;;0.90;;
19869;SDS011;10097;50.862;4.696;2022-08-19T16:33:37;2.80;;;0.70;;
19869;SDS011;10097;50.862;4.696;2022-08-19T16:36:03;2.70;;;1.00;;
19869;SDS011;10097;50.862;4.696;2022-08-19T16:38:30;2.42;;;0.55;;
19869;SDS011;10097;50.862;4.696;2022-08-19T16:40:56;3.78;;;0.70;;
19869;SDS011;10097;50.862;4.696;2022-08-19T16:43:24;2.70;;;0.80;;
19869;SDS011;10097;50.862;4.696;2022-08-19T16:45:51;3.10;;;0.63;;
19869;SDS011;10097;50.862;4.696;2022-08-19T16:48:20;2.78;;;0.82;;
19869;SDS011;10097;50.862;4.696;2022-08-19T16:50:48;3.45;;;0.90;;
19869;SDS011;10097;50.862;4.696;2022-08-19T16:53:14;2.47;;;0.70;;
19869;SDS011;10097;50.862;4.696;2022-08-19T16:55:41;4.80;;;0.85;;
19869;SDS011;10097;50.862;4.696;2022-08-19T16:58:07;2.05;;;0.68;;
19869;SDS011;10097;50.862;4.696;2022-08-19T17:00:35;1.92;;;0.68;;
19869;SDS011;10097;50.862;4.696;2022-08-19T17:03:07;2.95;;;0.90;;
19869;SDS011;10097;50.862;4.696;2022-08-19T17:05:41;4.70;;;0.95;;
19869;SDS011;10097;50.862;4.696;2022-08-19T17:08:12;1.83;;;0.77;;
19869;SDS011;10097;50.862;4.696;2022-08-19T17:10:40;4.65;;;1.13;;
19869;SDS011;10097;50.862;4.696;2022-08-19T17:13:06;3.58;;;1.02;;
19869;SDS011;10097;50.862;4.696;2022-08-19T17:15:32;5.93;;;1.10;;
19869;SDS011;10097;50.862;4.696;2022-08-19T17:17:59;3.00;;;0.93;;
19869;SDS011;10097;50.862;4.696;2022-08-19T17:20:30;5.43;;;0.82;;
19869;SDS011;10097;50.862;4.696;2022-08-19T17:22:55;1.92;;;0.70;;
19869;SDS011;10097;50.862;4.696;2022-08-19T17:25:22;4.32;;;1.00;;
19869;SDS011;10097;50.862;4.696;2022-08-19T17:27:51;1.60;;;0.70;;
19869;SDS011;10097;50.862;4.696;2022-08-19T17:30:18;2.53;;;0.75;;
19869;SDS011;10097;50.862;4.696;2022-08-19T17:32:45;3.60;;;1.00;;
19869;SDS011;10097;50.862;4.696;2022-08-19T17:35:12;5.68;;;1.02;;
19869;SDS011;10097;50.862;4.696;2022-08-19T17:37:48;4.40;;;1.17;;
19869;SDS011;10097;50.862;4.696;2022-08-19T17:40:15;4.50;;;1.35;;
19869;SDS011;10097;50.862;4.696;2022-08-19T17:42:42;2.65;;;1.05;;
19869;SDS011;10097;50.862;4.696;2022-08-19T17:45:11;4.85;;;1.33;;
19869;SDS011;10097;50.862;4.696;2022-08-19T17:47:45;3.03;;;1.13;;
19869;SDS011;10097;50.862;4.696;2022-08-19T17:50:20;4.07;;;1.38;;
19869;SDS011;10097;50.862;4.696;2022-08-19T17:52:52;5.47;;;1.50;;
19869;SDS011;10097;50.862;4.696;2022-08-19T17:55:18;3.70;;;1.42;;
19869;SDS011;10097;50.862;4.696;2022-08-19T17:57:46;4.63;;;1.40;;
19869;SDS011;10097;50.862;4.696;2022-08-19T18:00:12;6.20;;;1.85;;
19869;SDS011;10097;50.862;4.696;2022-08-19T18:02:43;3.58;;;1.73;;
19869;SDS011;10097;50.862;4.696;2022-08-19T18:05:14;6.22;;;1.90;;
19869;SDS011;10097;50.862;4.696;2022-08-19T18:07:42;7.28;;;2.08;;
19869;SDS011;10097;50.862;4.696;2022-08-19T18:10:08;5.38;;;1.90;;
19869;SDS011;10097;50.862;4.696;2022-08-19T18:12:35;5.80;;;2.00;;
19869;SDS011;10097;50.862;4.696;2022-08-19T18:15:03;6.60;;;2.65;;
19869;SDS011;10097;50.862;4.696;2022-08-19T18:17:30;8.23;;;3.00;;
19869;SDS011;10097;50.862;4.696;2022-08-19T18:19:57;7.30;;;2.97;;
19869;SDS011;10097;50.862;4.696;2022-08-19T18:24:55;6.97;;;2.58;;
19869;SDS011;10097;50.862;4.696;2022-08-19T18:27:23;7.68;;;2.63;;
19869;SDS011;10097;50.862;4.696;2022-08-19T18:29:50;14.30;;;3.17;;
19869;SDS011;10097;50.862;4.696;2022-08-19T18:32:16;8.15;;;2.58;;
19869;SDS011;10097;50.862;4.696;2022-08-19T18:34:42;4.85;;;2.13;;
19869;SDS011;10097;50.862;4.696;2022-08-19T18:37:10;7.50;;;2.35;;
19869;SDS011;10097;50.862;4.696;2022-08-19T18:39:36;7.38;;;2.67;;
19869;SDS011;10097;50.862;4.696;2022-08-19T18:42:20;6.93;;;2.67;;
19869;SDS011;10097;50.862;4.696;2022-08-19T18:45:07;6.70;;;2.30;;
19869;SDS011;10097;50.862;4.696;2022-08-19T18:47:53;5.90;;;2.45;;
19869;SDS011;10097;50.862;4.696;2022-08-19T18:50:37;4.93;;;1.98;;
19869;SDS011;10097;50.862;4.696;2022-08-19T18:53:11;5.78;;;1.90;;
19869;SDS011;10097;50.862;4.696;2022-08-19T18:55:37;8.18;;;2.95;;
19869;SDS011;10097;50.862;4.696;2022-08-19T18:58:03;5.20;;;2.20;;
19869;SDS011;10097;50.862;4.696;2022-08-19T19:00:29;5.72;;;2.33;;
19869;SDS011;10097;50.862;4.696;2022-08-19T19:02:56;7.13;;;2.80;;
19869;SDS011;10097;50.862;4.696;2022-08-19T19:05:22;7.28;;;2.47;;
19869;SDS011;10097;50.862;4.696;2022-08-19T19:07:49;7.78;;;2.75;;
19869;SDS011;10097;50.862;4.696;2022-08-19T19:10:17;9.48;;;3.10;;
19869;SDS011;10097;50.862;4.696;2022-08-19T19:12:43;6.85;;;3.00;;
19869;SDS011;10097;50.862;4.696;2022-08-19T19:15:09;7.30;;;3.35;;
19869;SDS011;10097;50.862;4.696;2022-08-19T19:17:35;7.35;;;3.10;;
19869;SDS011;10097;50.862;4.696;2022-08-19T19:20:01;6.90;;;3.00;;
19869;SDS011;10097;50.862;4.696;2022-08-19T19:22:28;7.15;;;3.17;;
19869;SDS011;10097;50.862;4.696;2022-08-19T19:24:53;7.93;;;3.65;;
19869;SDS011;10097;50.862;4.696;2022-08-19T19:27:20;6.57;;;3.20;;
19869;SDS011;10097;50.862;4.696;2022-08-19T19:29:47;8.93;;;4.00;;
19869;SDS011;10097;50.862;4.696;2022-08-19T19:32:24;7.72;;;3.80;;
19869;SDS011;10097;50.862;4.696;2022-08-19T19:56:12;6.95;;;3.60;;
19869;SDS011;10097;50.862;4.696;2022-08-19T20:02:00;13.57;;;3.78;;
19869;SDS011;10097;50.862;4.696;2022-08-19T20:04:25;7.53;;;3.10;;
19869;SDS011;10097;50.862;4.696;2022-08-19T20:06:51;10.95;;;3.53;;
19869;SDS011;10097;50.862;4.696;2022-08-19T20:50:09;7.30;;;2.60;;
19869;SDS011;10097;50.862;4.696;2022-08-19T20:52:36;9.85;;;2.67;;
19869;SDS011;10097;50.862;4.696;2022-08-19T20:55:02;5.95;;;2.25;;
19869;SDS011;10097;50.862;4.696;2022-08-19T20:57:29;6.95;;;2.45;;
19869;SDS011;10097;50.862;4.696;2022-08-19T20:59:54;5.80;;;2.58;;
19869;SDS011;10097;50.862;4.696;2022-08-19T21:02:20;10.20;;;2.90;;
19869;SDS011;10097;50.862;4.696;2022-08-19T21:04:46;4.28;;;2.13;;
19869;SDS011;10097;50.862;4.696;2022-08-19T21:07:12;7.82;;;2.55;;
19869;SDS011;10097;50.862;4.696;2022-08-19T21:09:39;6.40;;;2.60;;
19869;SDS011;10097;50.862;4.696;2022-08-19T21:12:05;5.30;;;2.10;;
19869;SDS011;10097;50.862;4.696;2022-08-19T21:14:32;7.63;;;2.47;;
19869;SDS011;10097;50.862;4.696;2022-08-19T21:17:02;6.68;;;2.50;;
19869;SDS011;10097;50.862;4.696;2022-08-19T21:19:27;10.77;;;2.83;;
19869;SDS011;10097;50.862;4.696;2022-08-19T21:21:53;4.95;;;2.42;;
19869;SDS011;10097;50.862;4.696;2022-08-19T21:24:19;6.47;;;2.63;;
19869;SDS011;10097;50.862;4.696;2022-08-19T21:26:45;7.95;;;2.33;;
19869;SDS011;10097;50.862;4.696;2022-08-19T21:29:11;5.97;;;2.50;;
19869;SDS011;10097;50.862;4.696;2022-08-19T21:31:36;7.20;;;2.70;;
19869;SDS011;10097;50.862;4.696;2022-08-19T21:34:02;4.82;;;2.10;;
19869;SDS011;10097;50.862;4.696;2022-08-19T21:36:29;5.00;;;2.08;;
19869;SDS011;10097;50.862;4.696;2022-08-19T21:38:54;5.20;;;2.33;;
19869;SDS011;10097;50.862;4.696;2022-08-19T21:41:20;7.63;;;2.35;;
19869;SDS011;10097;50.862;4.696;2022-08-19T21:43:46;6.22;;;2.08;;
19869;SDS011;10097;50.862;4.696;2022-08-19T21:46:12;5.38;;;2.10;;
19869;SDS011;10097;50.862;4.696;2022-08-19T21:48:37;7.43;;;2.63;;
19869;SDS011;10097;50.862;4.696;2022-08-19T21:51:03;4.70;;;1.80;;
19869;SDS011;10097;50.862;4.696;2022-08-19T21:53:28;10.40;;;2.63;;
19869;SDS011;10097;50.862;4.696;2022-08-19T21:55:55;5.93;;;2.35;;
19869;SDS011;10097;50.862;4.696;2022-08-19T21:58:21;6.75;;;2.10;;
19869;SDS011;10097;50.862;4.696;2022-08-19T22:00:47;9.35;;;2.55;;
19869;SDS011;10097;50.862;4.696;2022-08-19T22:03:15;5.85;;;2.20;;
19869;SDS011;10097;50.862;4.696;2022-08-19T22:05:42;6.13;;;2.42;;
19869;SDS011;10097;50.862;4.696;2022-08-19T22:08:07;7.68;;;2.63;;
19869;SDS011;10097;50.862;4.696;2022-08-19T22:10:33;5.97;;;2.50;;
19869;SDS011;10097;50.862;4.696;2022-08-19T22:12:59;6.65;;;2.40;;
19869;SDS011;10097;50.862;4.696;2022-08-19T22:15:25;8.30;;;2.58;;
19869;SDS011;10097;50.862;4.696;2022-08-19T22:17:53;5.22;;;2.40;;
19869;SDS011;10097;50.862;4.696;2022-08-19T22:20:21;6.28;;;2.60;;
19869;SDS011;10097;50.862;4.696;2022-08-19T22:22:50;11.02;;;2.70;;
19869;SDS011;10097;50.862;4.696;2022-08-19T22:25:22;7.38;;;2.30;;
19869;SDS011;10097;50.862;4.696;2022-08-19T22:27:50;7.50;;;2.78;;
19869;SDS011;10097;50.862;4.696;2022-08-19T22:30:16;4.57;;;2.17;;
19869;SDS011;10097;50.862;4.696;2022-08-19T22:32:44;5.68;;;2.58;;
19869;SDS011;10097;50.862;4.696;2022-08-19T22:35:14;6.22;;;2.72;;
19869;SDS011;10097;50.862;4.696;2022-08-19T22:37:41;6.93;;;2.83;;
19869;SDS011;10097;50.862;4.696;2022-08-19T22:40:08;7.63;;;2.97;;
19869;SDS011;10097;50.862;4.696;2022-08-19T22:42:35;10.18;;;3.15;;
19869;SDS011;10097;50.862;4.696;2022-08-19T22:45:01;9.55;;;3.25;;
19869;SDS011;10097;50.862;4.696;2022-08-19T22:47:27;6.25;;;2.90;;
19869;SDS011;10097;50.862;4.696;2022-08-19T22:49:53;9.40;;;4.20;;
19869;SDS011;10097;50.862;4.696;2022-08-19T22:52:18;8.43;;;3.50;;
19869;SDS011;10097;50.862;4.696;2022-08-19T22:54:48;7.75;;;3.20;;
19869;SDS011;10097;50.862;4.696;2022-08-19T22:57:16;8.30;;;3.17;;
19869;SDS011;10097;50.862;4.696;2022-08-19T22:59:46;7.22;;;3.10;;
19869;SDS011;10097;50.862;4.696;2022-08-19T23:02:20;9.02;;;3.90;;
19869;SDS011;10097;50.862;4.696;2022-08-19T23:04:48;7.72;;;3.45;;
19869;SDS011;10097;50.862;4.696;2022-08-19T23:07:15;9.48;;;3.50;;
19869;SDS011;10097;50.862;4.696;2022-08-19T23:09:41;8.23;;;3.20;;
19869;SDS011;10097;50.862;4.696;2022-08-19T23:12:07;9.68;;;3.30;;
19869;SDS011;10097;50.862;4.696;2022-08-19T23:14:33;10.25;;;3.65;;
19869;SDS011;10097;50.862;4.696;2022-08-19T23:17:01;7.40;;;3.50;;
19869;SDS011;10097;50.862;4.696;2022-08-19T23:19:28;8.65;;;3.70;;
19869;SDS011;10097;50.862;4.696;2022-08-19T23:21:54;11.45;;;3.58;;
19869;SDS011;10097;50.862;4.696;2022-08-19T23:24:20;6.90;;;3.42;;
19869;SDS011;10097;50.862;4.696;2022-08-19T23:26:46;11.35;;;4.32;;
19869;SDS011;10097;50.862;4.696;2022-08-19T23:29:50;13.02;;;4.53;;
19869;SDS011;10097;50.862;4.696;2022-08-19T23:32:34;10.95;;;4.25;;
19869;SDS011;10097;50.862;4.696;2022-08-19T23:35:00;10.38;;;4.13;;
19869;SDS011;10097;50.862;4.696;2022-08-19T23:37:25;9.13;;;4.60;;
19869;SDS011;10097;50.862;4.696;2022-08-19T23:39:51;12.50;;;4.97;;
19869;SDS011;10097;50.862;4.696;2022-08-19T23:42:17;10.63;;;4.72;;
19869;SDS011;10097;50.862;4.696;2022-08-19T23:44:44;11.77;;;5.03;;
19869;SDS011;10097;50.862;4.696;2022-08-19T23:47:10;13.50;;;5.35;;
19869;SDS011;10097;50.862;4.696;2022-08-19T23:49:36;10.60;;;4.95;;
19869;SDS011;10097;50.862;4.696;2022-08-19T23:52:02;11.82;;;4.80;;
19869;SDS011;10097;50.862;4.696;2022-08-19T23:54:27;13.50;;;4.72;;
19869;SDS011;10097;50.862;4.696;2022-08-19T23:56:53;14.35;;;5.00;;